sensor_id;sensor_type;location;lat;lon;timestamp;P1;durP1;ratioP1;P2;durP2;ratioP2
73980;SDS011;62348;51.412;5.436;2023-07-30T00:01:35;8.57;;;3.08;;
73980;SDS011;62348;51.412;5.436;2023-07-30T00:04:00;6.85;;;3.72;;
73980;SDS011;62348;51.412;5.436;2023-07-30T00:06:26;10.05;;;2.60;;
73980;SDS011;62348;51.412;5.436;2023-07-30T00:08:51;6.43;;;2.42;;
73980;SDS011;62348;51.412;5.436;2023-07-30T00:11:17;6.60;;;2.75;;
73980;SDS011;62348;51.412;5.436;2023-07-30T00:13:42;7.00;;;2.65;;
73980;SDS011;62348;51.412;5.436;2023-07-30T00:16:07;6.45;;;3.30;;
73980;SDS011;62348;51.412;5.436;2023-07-30T00:18:33;6.68;;;3.28;;
73980;SDS011;62348;51.412;5.436;2023-07-30T00:20:59;5.63;;;3.13;;
73980;SDS011;62348;51.412;5.436;2023-07-30T00:23:24;6.63;;;3.05;;
73980;SDS011;62348;51.412;5.436;2023-07-30T00:25:50;5.82;;;2.67;;
73980;SDS011;62348;51.412;5.436;2023-07-30T00:28:15;8.70;;;2.67;;
73980;SDS011;62348;51.412;5.436;2023-07-30T00:30:40;8.30;;;3.05;;
73980;SDS011;62348;51.412;5.436;2023-07-30T00:33:06;5.10;;;2.60;;
73980;SDS011;62348;51.412;5.436;2023-07-30T00:35:31;7.82;;;2.65;;
73980;SDS011;62348;51.412;5.436;2023-07-30T00:37:56;5.60;;;2.70;;
73980;SDS011;62348;51.412;5.436;2023-07-30T00:40:22;6.25;;;2.65;;
73980;SDS011;62348;51.412;5.436;2023-07-30T00:42:47;8.38;;;2.90;;
73980;SDS011;62348;51.412;5.436;2023-07-30T00:45:12;7.28;;;3.03;;
73980;SDS011;62348;51.412;5.436;2023-07-30T00:47:38;5.40;;;2.90;;
73980;SDS011;62348;51.412;5.436;2023-07-30T00:50:04;9.10;;;2.90;;
73980;SDS011;62348;51.412;5.436;2023-07-30T00:52:32;10.20;;;3.50;;
73980;SDS011;62348;51.412;5.436;2023-07-30T00:54:57;5.63;;;2.42;;
73980;SDS011;62348;51.412;5.436;2023-07-30T00:57:24;9.13;;;2.88;;
73980;SDS011;62348;51.412;5.436;2023-07-30T00:59:51;7.97;;;3.40;;
73980;SDS011;62348;51.412;5.436;2023-07-30T01:02:17;11.07;;;2.80;;
73980;SDS011;62348;51.412;5.436;2023-07-30T01:04:42;9.52;;;2.80;;
73980;SDS011;62348;51.412;5.436;2023-07-30T01:07:09;7.10;;;2.95;;
73980;SDS011;62348;51.412;5.436;2023-07-30T01:09:34;7.50;;;2.88;;
73980;SDS011;62348;51.412;5.436;2023-07-30T01:12:00;6.50;;;2.85;;
73980;SDS011;62348;51.412;5.436;2023-07-30T01:14:28;8.20;;;2.67;;
73980;SDS011;62348;51.412;5.436;2023-07-30T01:16:54;6.82;;;2.72;;
73980;SDS011;62348;51.412;5.436;2023-07-30T01:19:20;11.32;;;3.55;;
73980;SDS011;62348;51.412;5.436;2023-07-30T01:21:46;7.15;;;2.78;;
73980;SDS011;62348;51.412;5.436;2023-07-30T01:24:11;10.43;;;3.47;;
73980;SDS011;62348;51.412;5.436;2023-07-30T01:26:43;7.28;;;2.70;;
73980;SDS011;62348;51.412;5.436;2023-07-30T01:29:33;5.10;;;2.60;;
73980;SDS011;62348;51.412;5.436;2023-07-30T01:32:07;6.82;;;2.85;;
73980;SDS011;62348;51.412;5.436;2023-07-30T01:34:36;7.82;;;2.72;;
73980;SDS011;62348;51.412;5.436;2023-07-30T01:37:04;10.95;;;3.35;;
73980;SDS011;62348;51.412;5.436;2023-07-30T01:39:33;10.32;;;3.20;;
73980;SDS011;62348;51.412;5.436;2023-07-30T01:42:01;7.07;;;2.83;;
73980;SDS011;62348;51.412;5.436;2023-07-30T01:44:26;7.13;;;3.08;;
73980;SDS011;62348;51.412;5.436;2023-07-30T01:46:52;11.70;;;2.53;;
73980;SDS011;62348;51.412;5.436;2023-07-30T01:49:17;9.52;;;3.05;;
73980;SDS011;62348;51.412;5.436;2023-07-30T01:51:43;6.85;;;2.70;;
73980;SDS011;62348;51.412;5.436;2023-07-30T01:54:08;8.82;;;3.35;;
73980;SDS011;62348;51.412;5.436;2023-07-30T01:56:33;6.40;;;2.60;;
73980;SDS011;62348;51.412;5.436;2023-07-30T01:58:59;11.85;;;4.10;;
73980;SDS011;62348;51.412;5.436;2023-07-30T02:01:24;8.98;;;3.22;;
73980;SDS011;62348;51.412;5.436;2023-07-30T02:03:49;11.20;;;3.00;;
73980;SDS011;62348;51.412;5.436;2023-07-30T02:06:15;8.95;;;3.10;;
73980;SDS011;62348;51.412;5.436;2023-07-30T02:08:40;9.43;;;3.22;;
73980;SDS011;62348;51.412;5.436;2023-07-30T02:11:05;8.02;;;3.05;;
73980;SDS011;62348;51.412;5.436;2023-07-30T02:13:31;8.40;;;3.30;;
73980;SDS011;62348;51.412;5.436;2023-07-30T02:15:56;10.32;;;3.10;;
73980;SDS011;62348;51.412;5.436;2023-07-30T02:18:22;9.43;;;3.28;;
73980;SDS011;62348;51.412;5.436;2023-07-30T02:20:47;9.18;;;3.50;;
73980;SDS011;62348;51.412;5.436;2023-07-30T02:23:13;15.70;;;4.13;;
73980;SDS011;62348;51.412;5.436;2023-07-30T02:25:41;8.30;;;2.72;;
73980;SDS011;62348;51.412;5.436;2023-07-30T02:28:06;10.18;;;3.40;;
73980;SDS011;62348;51.412;5.436;2023-07-30T02:30:32;10.57;;;3.28;;
73980;SDS011;62348;51.412;5.436;2023-07-30T02:32:58;6.65;;;2.90;;
73980;SDS011;62348;51.412;5.436;2023-07-30T02:35:24;8.20;;;2.95;;
73980;SDS011;62348;51.412;5.436;2023-07-30T02:37:49;9.25;;;3.00;;
73980;SDS011;62348;51.412;5.436;2023-07-30T02:40:15;9.40;;;3.25;;
73980;SDS011;62348;51.412;5.436;2023-07-30T02:42:40;12.77;;;3.60;;
73980;SDS011;62348;51.412;5.436;2023-07-30T02:45:06;11.18;;;2.95;;
73980;SDS011;62348;51.412;5.436;2023-07-30T02:47:31;11.77;;;4.00;;
73980;SDS011;62348;51.412;5.436;2023-07-30T02:49:57;8.82;;;3.20;;
73980;SDS011;62348;51.412;5.436;2023-07-30T02:52:22;11.60;;;3.22;;
73980;SDS011;62348;51.412;5.436;2023-07-30T02:54:47;10.02;;;3.70;;
73980;SDS011;62348;51.412;5.436;2023-07-30T02:57:13;12.60;;;3.42;;
73980;SDS011;62348;51.412;5.436;2023-07-30T02:59:38;7.60;;;3.58;;
73980;SDS011;62348;51.412;5.436;2023-07-30T03:02:05;10.00;;;3.13;;
73980;SDS011;62348;51.412;5.436;2023-07-30T03:04:31;10.60;;;3.97;;
73980;SDS011;62348;51.412;5.436;2023-07-30T03:06:56;9.43;;;3.17;;
73980;SDS011;62348;51.412;5.436;2023-07-30T03:09:22;13.35;;;3.63;;
73980;SDS011;62348;51.412;5.436;2023-07-30T03:11:48;8.85;;;3.10;;
73980;SDS011;62348;51.412;5.436;2023-07-30T03:14:14;11.55;;;3.15;;
73980;SDS011;62348;51.412;5.436;2023-07-30T03:16:40;11.90;;;3.38;;
73980;SDS011;62348;51.412;5.436;2023-07-30T03:19:05;8.80;;;3.25;;
73980;SDS011;62348;51.412;5.436;2023-07-30T03:21:31;8.25;;;3.03;;
73980;SDS011;62348;51.412;5.436;2023-07-30T03:23:56;11.73;;;2.97;;
73980;SDS011;62348;51.412;5.436;2023-07-30T03:26:22;8.60;;;4.00;;
73980;SDS011;62348;51.412;5.436;2023-07-30T03:28:47;8.70;;;3.17;;
73980;SDS011;62348;51.412;5.436;2023-07-30T03:31:12;11.52;;;2.95;;
73980;SDS011;62348;51.412;5.436;2023-07-30T03:33:38;15.23;;;3.65;;
73980;SDS011;62348;51.412;5.436;2023-07-30T03:36:04;12.32;;;2.63;;
73980;SDS011;62348;51.412;5.436;2023-07-30T03:38:29;7.60;;;2.78;;
73980;SDS011;62348;51.412;5.436;2023-07-30T03:40:55;9.65;;;3.03;;
73980;SDS011;62348;51.412;5.436;2023-07-30T03:43:20;9.63;;;3.35;;
73980;SDS011;62348;51.412;5.436;2023-07-30T03:45:46;12.98;;;3.92;;
73980;SDS011;62348;51.412;5.436;2023-07-30T03:48:11;15.45;;;3.67;;
73980;SDS011;62348;51.412;5.436;2023-07-30T03:50:36;12.98;;;3.10;;
73980;SDS011;62348;51.412;5.436;2023-07-30T03:53:02;12.90;;;3.22;;
73980;SDS011;62348;51.412;5.436;2023-07-30T03:55:27;17.30;;;3.83;;
73980;SDS011;62348;51.412;5.436;2023-07-30T03:57:53;10.93;;;4.10;;
73980;SDS011;62348;51.412;5.436;2023-07-30T04:00:18;12.73;;;4.25;;
73980;SDS011;62348;51.412;5.436;2023-07-30T04:02:44;14.27;;;3.50;;
73980;SDS011;62348;51.412;5.436;2023-07-30T04:05:09;12.50;;;4.35;;
73980;SDS011;62348;51.412;5.436;2023-07-30T04:07:35;12.60;;;4.32;;
73980;SDS011;62348;51.412;5.436;2023-07-30T04:10:00;9.90;;;5.20;;
73980;SDS011;62348;51.412;5.436;2023-07-30T04:12:25;11.27;;;3.70;;
73980;SDS011;62348;51.412;5.436;2023-07-30T04:14:51;12.73;;;4.40;;
73980;SDS011;62348;51.412;5.436;2023-07-30T04:17:16;16.27;;;4.70;;
73980;SDS011;62348;51.412;5.436;2023-07-30T04:19:42;17.13;;;3.95;;
73980;SDS011;62348;51.412;5.436;2023-07-30T04:22:07;13.07;;;4.63;;
73980;SDS011;62348;51.412;5.436;2023-07-30T04:24:32;13.05;;;4.32;;
73980;SDS011;62348;51.412;5.436;2023-07-30T04:27:00;17.75;;;5.63;;
73980;SDS011;62348;51.412;5.436;2023-07-30T04:29:25;16.40;;;4.53;;
73980;SDS011;62348;51.412;5.436;2023-07-30T04:31:51;13.68;;;4.38;;
73980;SDS011;62348;51.412;5.436;2023-07-30T04:34:16;13.68;;;4.53;;
73980;SDS011;62348;51.412;5.436;2023-07-30T04:36:42;13.38;;;4.43;;
73980;SDS011;62348;51.412;5.436;2023-07-30T04:39:07;15.68;;;5.40;;
73980;SDS011;62348;51.412;5.436;2023-07-30T04:41:33;13.55;;;4.88;;
73980;SDS011;62348;51.412;5.436;2023-07-30T04:43:58;13.55;;;4.30;;
73980;SDS011;62348;51.412;5.436;2023-07-30T04:46:24;14.32;;;4.45;;
73980;SDS011;62348;51.412;5.436;2023-07-30T04:48:50;14.70;;;4.15;;
73980;SDS011;62348;51.412;5.436;2023-07-30T04:51:16;13.98;;;4.05;;
73980;SDS011;62348;51.412;5.436;2023-07-30T04:53:41;13.98;;;5.10;;
73980;SDS011;62348;51.412;5.436;2023-07-30T04:56:06;18.23;;;4.32;;
73980;SDS011;62348;51.412;5.436;2023-07-30T04:58:32;18.83;;;4.90;;
73980;SDS011;62348;51.412;5.436;2023-07-30T05:00:57;15.55;;;4.30;;
73980;SDS011;62348;51.412;5.436;2023-07-30T05:03:23;13.07;;;3.75;;
73980;SDS011;62348;51.412;5.436;2023-07-30T05:05:48;14.00;;;4.47;;
73980;SDS011;62348;51.412;5.436;2023-07-30T05:08:13;15.70;;;4.90;;
73980;SDS011;62348;51.412;5.436;2023-07-30T05:10:39;13.40;;;4.00;;
73980;SDS011;62348;51.412;5.436;2023-07-30T05:13:04;16.10;;;4.57;;
73980;SDS011;62348;51.412;5.436;2023-07-30T05:15:29;17.88;;;5.18;;
73980;SDS011;62348;51.412;5.436;2023-07-30T05:17:55;15.23;;;4.70;;
73980;SDS011;62348;51.412;5.436;2023-07-30T05:20:20;21.08;;;4.50;;
73980;SDS011;62348;51.412;5.436;2023-07-30T05:22:46;15.35;;;4.53;;
73980;SDS011;62348;51.412;5.436;2023-07-30T05:25:11;16.30;;;5.07;;
73980;SDS011;62348;51.412;5.436;2023-07-30T05:27:36;16.40;;;5.75;;
73980;SDS011;62348;51.412;5.436;2023-07-30T05:30:02;20.17;;;5.30;;
73980;SDS011;62348;51.412;5.436;2023-07-30T05:32:28;17.33;;;6.10;;
73980;SDS011;62348;51.412;5.436;2023-07-30T05:34:53;14.52;;;5.00;;
73980;SDS011;62348;51.412;5.436;2023-07-30T05:37:18;16.40;;;5.13;;
73980;SDS011;62348;51.412;5.436;2023-07-30T05:39:44;19.85;;;5.05;;
73980;SDS011;62348;51.412;5.436;2023-07-30T05:42:09;15.95;;;3.72;;
73980;SDS011;62348;51.412;5.436;2023-07-30T05:44:34;18.58;;;5.18;;
73980;SDS011;62348;51.412;5.436;2023-07-30T05:47:00;18.67;;;4.45;;
73980;SDS011;62348;51.412;5.436;2023-07-30T05:49:25;14.68;;;4.07;;
73980;SDS011;62348;51.412;5.436;2023-07-30T05:51:50;14.20;;;4.22;;
73980;SDS011;62348;51.412;5.436;2023-07-30T05:54:16;20.63;;;6.07;;
73980;SDS011;62348;51.412;5.436;2023-07-30T05:56:42;18.15;;;5.40;;
73980;SDS011;62348;51.412;5.436;2023-07-30T05:59:07;20.67;;;5.53;;
73980;SDS011;62348;51.412;5.436;2023-07-30T06:01:33;18.30;;;4.68;;
73980;SDS011;62348;51.412;5.436;2023-07-30T06:03:58;22.75;;;5.57;;
73980;SDS011;62348;51.412;5.436;2023-07-30T06:06:23;24.30;;;4.82;;
73980;SDS011;62348;51.412;5.436;2023-07-30T06:08:55;18.60;;;5.75;;
73980;SDS011;62348;51.412;5.436;2023-07-30T06:11:21;19.75;;;5.57;;
73980;SDS011;62348;51.412;5.436;2023-07-30T06:13:47;17.13;;;5.05;;
73980;SDS011;62348;51.412;5.436;2023-07-30T06:16:12;21.40;;;5.60;;
73980;SDS011;62348;51.412;5.436;2023-07-30T06:18:38;17.33;;;4.70;;
73980;SDS011;62348;51.412;5.436;2023-07-30T06:21:04;15.77;;;5.00;;
73980;SDS011;62348;51.412;5.436;2023-07-30T06:23:29;23.42;;;5.45;;
73980;SDS011;62348;51.412;5.436;2023-07-30T06:25:55;18.50;;;5.22;;
73980;SDS011;62348;51.412;5.436;2023-07-30T06:28:20;22.00;;;5.47;;
73980;SDS011;62348;51.412;5.436;2023-07-30T06:30:45;21.45;;;5.68;;
73980;SDS011;62348;51.412;5.436;2023-07-30T06:33:11;17.67;;;5.07;;
73980;SDS011;62348;51.412;5.436;2023-07-30T06:35:36;21.52;;;5.13;;
73980;SDS011;62348;51.412;5.436;2023-07-30T06:38:02;17.33;;;4.82;;
73980;SDS011;62348;51.412;5.436;2023-07-30T06:40:27;22.75;;;4.93;;
73980;SDS011;62348;51.412;5.436;2023-07-30T06:42:53;18.92;;;4.78;;
73980;SDS011;62348;51.412;5.436;2023-07-30T06:45:18;16.52;;;4.50;;
73980;SDS011;62348;51.412;5.436;2023-07-30T06:47:44;14.57;;;4.80;;
73980;SDS011;62348;51.412;5.436;2023-07-30T06:50:09;15.45;;;3.85;;
73980;SDS011;62348;51.412;5.436;2023-07-30T06:52:35;17.63;;;4.65;;
73980;SDS011;62348;51.412;5.436;2023-07-30T06:55:01;18.60;;;4.53;;
73980;SDS011;62348;51.412;5.436;2023-07-30T06:57:28;16.98;;;5.57;;
73980;SDS011;62348;51.412;5.436;2023-07-30T06:59:54;14.95;;;4.22;;
73980;SDS011;62348;51.412;5.436;2023-07-30T07:02:20;14.35;;;4.05;;
73980;SDS011;62348;51.412;5.436;2023-07-30T07:04:45;21.45;;;4.80;;
73980;SDS011;62348;51.412;5.436;2023-07-30T07:07:10;15.23;;;3.78;;
73980;SDS011;62348;51.412;5.436;2023-07-30T07:09:36;13.48;;;3.78;;
73980;SDS011;62348;51.412;5.436;2023-07-30T07:12:01;21.55;;;5.07;;
73980;SDS011;62348;51.412;5.436;2023-07-30T07:14:28;14.10;;;3.58;;
73980;SDS011;62348;51.412;5.436;2023-07-30T07:16:54;32.40;;;6.15;;
73980;SDS011;62348;51.412;5.436;2023-07-30T07:19:21;19.58;;;4.18;;
73980;SDS011;62348;51.412;5.436;2023-07-30T07:21:46;17.75;;;3.47;;
73980;SDS011;62348;51.412;5.436;2023-07-30T07:24:12;16.77;;;4.30;;
73980;SDS011;62348;51.412;5.436;2023-07-30T07:26:37;14.43;;;3.72;;
73980;SDS011;62348;51.412;5.436;2023-07-30T07:29:02;13.60;;;3.83;;
73980;SDS011;62348;51.412;5.436;2023-07-30T07:31:28;24.73;;;5.60;;
73980;SDS011;62348;51.412;5.436;2023-07-30T07:33:53;18.63;;;4.70;;
73980;SDS011;62348;51.412;5.436;2023-07-30T07:36:19;23.48;;;3.78;;
73980;SDS011;62348;51.412;5.436;2023-07-30T07:38:44;19.38;;;3.75;;
73980;SDS011;62348;51.412;5.436;2023-07-30T07:41:13;11.98;;;3.75;;
73980;SDS011;62348;51.412;5.436;2023-07-30T07:43:48;17.15;;;3.97;;
73980;SDS011;62348;51.412;5.436;2023-07-30T07:46:14;19.73;;;4.65;;
73980;SDS011;62348;51.412;5.436;2023-07-30T07:48:43;18.70;;;3.25;;
73980;SDS011;62348;51.412;5.436;2023-07-30T07:51:09;13.55;;;3.50;;
73980;SDS011;62348;51.412;5.436;2023-07-30T07:53:35;17.60;;;3.22;;
73980;SDS011;62348;51.412;5.436;2023-07-30T07:56:01;11.98;;;3.45;;
73980;SDS011;62348;51.412;5.436;2023-07-30T07:58:27;16.60;;;4.28;;
73980;SDS011;62348;51.412;5.436;2023-07-30T08:00:57;18.00;;;3.72;;
73980;SDS011;62348;51.412;5.436;2023-07-30T08:03:23;13.77;;;3.17;;
73980;SDS011;62348;51.412;5.436;2023-07-30T08:05:48;16.90;;;3.85;;
73980;SDS011;62348;51.412;5.436;2023-07-30T08:08:14;19.05;;;3.67;;
73980;SDS011;62348;51.412;5.436;2023-07-30T08:10:40;17.08;;;3.70;;
73980;SDS011;62348;51.412;5.436;2023-07-30T08:13:09;11.35;;;3.08;;
73980;SDS011;62348;51.412;5.436;2023-07-30T08:15:35;17.30;;;3.80;;
73980;SDS011;62348;51.412;5.436;2023-07-30T08:18:00;16.25;;;3.10;;
73980;SDS011;62348;51.412;5.436;2023-07-30T08:20:26;15.82;;;3.22;;
73980;SDS011;62348;51.412;5.436;2023-07-30T08:22:51;15.18;;;3.15;;
73980;SDS011;62348;51.412;5.436;2023-07-30T08:25:16;15.48;;;3.38;;
73980;SDS011;62348;51.412;5.436;2023-07-30T08:27:42;9.68;;;3.15;;
73980;SDS011;62348;51.412;5.436;2023-07-30T08:30:07;14.02;;;3.17;;
73980;SDS011;62348;51.412;5.436;2023-07-30T08:32:33;15.15;;;3.50;;
73980;SDS011;62348;51.412;5.436;2023-07-30T08:34:59;15.27;;;3.95;;
73980;SDS011;62348;51.412;5.436;2023-07-30T08:37:24;17.13;;;3.40;;
73980;SDS011;62348;51.412;5.436;2023-07-30T08:39:49;14.88;;;3.25;;
73980;SDS011;62348;51.412;5.436;2023-07-30T08:42:15;12.38;;;3.20;;
73980;SDS011;62348;51.412;5.436;2023-07-30T08:44:40;15.43;;;3.30;;
73980;SDS011;62348;51.412;5.436;2023-07-30T08:47:06;15.68;;;3.50;;
73980;SDS011;62348;51.412;5.436;2023-07-30T08:49:31;14.75;;;3.35;;
73980;SDS011;62348;51.412;5.436;2023-07-30T08:51:58;14.57;;;3.17;;
73980;SDS011;62348;51.412;5.436;2023-07-30T08:54:23;17.02;;;3.20;;
73980;SDS011;62348;51.412;5.436;2023-07-30T08:56:51;12.63;;;3.65;;
73980;SDS011;62348;51.412;5.436;2023-07-30T08:59:18;13.50;;;3.20;;
73980;SDS011;62348;51.412;5.436;2023-07-30T09:01:44;17.33;;;3.72;;
73980;SDS011;62348;51.412;5.436;2023-07-30T09:04:12;16.27;;;4.68;;
73980;SDS011;62348;51.412;5.436;2023-07-30T09:06:42;17.67;;;4.57;;
73980;SDS011;62348;51.412;5.436;2023-07-30T09:09:08;17.48;;;3.30;;
73980;SDS011;62348;51.412;5.436;2023-07-30T09:11:35;14.55;;;2.97;;
73980;SDS011;62348;51.412;5.436;2023-07-30T09:14:01;10.80;;;2.60;;
73980;SDS011;62348;51.412;5.436;2023-07-30T09:16:27;10.55;;;2.70;;
73980;SDS011;62348;51.412;5.436;2023-07-30T09:18:53;9.23;;;2.97;;
73980;SDS011;62348;51.412;5.436;2023-07-30T09:21:19;11.48;;;2.28;;
73980;SDS011;62348;51.412;5.436;2023-07-30T09:23:54;12.07;;;3.42;;
73980;SDS011;62348;51.412;5.436;2023-07-30T09:26:19;9.35;;;2.55;;
73980;SDS011;62348;51.412;5.436;2023-07-30T09:28:44;10.20;;;2.70;;
73980;SDS011;62348;51.412;5.436;2023-07-30T09:31:10;14.40;;;3.17;;
73980;SDS011;62348;51.412;5.436;2023-07-30T09:33:39;10.18;;;2.25;;
73980;SDS011;62348;51.412;5.436;2023-07-30T09:36:06;12.50;;;2.83;;
73980;SDS011;62348;51.412;5.436;2023-07-30T09:38:33;10.07;;;2.25;;
73980;SDS011;62348;51.412;5.436;2023-07-30T09:41:04;13.67;;;2.47;;
73980;SDS011;62348;51.412;5.436;2023-07-30T09:43:31;10.15;;;2.50;;
73980;SDS011;62348;51.412;5.436;2023-07-30T09:46:02;13.02;;;2.60;;
73980;SDS011;62348;51.412;5.436;2023-07-30T09:48:29;11.85;;;3.35;;
73980;SDS011;62348;51.412;5.436;2023-07-30T09:50:56;12.00;;;2.53;;
73980;SDS011;62348;51.412;5.436;2023-07-30T09:53:24;7.45;;;2.10;;
73980;SDS011;62348;51.412;5.436;2023-07-30T09:55:49;11.80;;;3.22;;
73980;SDS011;62348;51.412;5.436;2023-07-30T09:58:15;11.25;;;2.88;;
73980;SDS011;62348;51.412;5.436;2023-07-30T10:00:41;12.27;;;3.25;;
73980;SDS011;62348;51.412;5.436;2023-07-30T10:03:08;8.77;;;2.40;;
73980;SDS011;62348;51.412;5.436;2023-07-30T10:05:35;9.82;;;2.35;;
73980;SDS011;62348;51.412;5.436;2023-07-30T10:08:05;9.75;;;2.00;;
73980;SDS011;62348;51.412;5.436;2023-07-30T10:10:36;10.75;;;3.28;;
73980;SDS011;62348;51.412;5.436;2023-07-30T10:13:03;9.98;;;2.33;;
73980;SDS011;62348;51.412;5.436;2023-07-30T10:15:35;7.72;;;2.13;;
73980;SDS011;62348;51.412;5.436;2023-07-30T10:18:02;7.82;;;1.90;;
73980;SDS011;62348;51.412;5.436;2023-07-30T10:20:27;5.47;;;2.08;;
73980;SDS011;62348;51.412;5.436;2023-07-30T10:22:55;12.00;;;1.95;;
73980;SDS011;62348;51.412;5.436;2023-07-30T10:25:22;10.70;;;2.30;;
73980;SDS011;62348;51.412;5.436;2023-07-30T10:28:10;9.23;;;2.10;;
73980;SDS011;62348;51.412;5.436;2023-07-30T10:30:55;5.72;;;1.92;;
73980;SDS011;62348;51.412;5.436;2023-07-30T10:33:22;8.25;;;1.55;;
73980;SDS011;62348;51.412;5.436;2023-07-30T10:35:47;8.85;;;2.33;;
73980;SDS011;62348;51.412;5.436;2023-07-30T10:38:22;10.02;;;2.22;;
73980;SDS011;62348;51.412;5.436;2023-07-30T10:41:09;6.75;;;1.80;;
73980;SDS011;62348;51.412;5.436;2023-07-30T10:43:46;7.03;;;1.52;;
73980;SDS011;62348;51.412;5.436;2023-07-30T10:46:13;9.30;;;2.10;;
73980;SDS011;62348;51.412;5.436;2023-07-30T10:48:40;7.28;;;1.80;;
73980;SDS011;62348;51.412;5.436;2023-07-30T10:51:11;5.93;;;1.33;;
73980;SDS011;62348;51.412;5.436;2023-07-30T10:53:39;4.55;;;1.50;;
73980;SDS011;62348;51.412;5.436;2023-07-30T10:56:07;7.30;;;1.60;;
73980;SDS011;62348;51.412;5.436;2023-07-30T10:58:35;6.03;;;1.60;;
73980;SDS011;62348;51.412;5.436;2023-07-30T11:01:05;5.63;;;1.50;;
73980;SDS011;62348;51.412;5.436;2023-07-30T11:03:32;5.03;;;1.50;;
73980;SDS011;62348;51.412;5.436;2023-07-30T11:05:58;6.78;;;1.60;;
73980;SDS011;62348;51.412;5.436;2023-07-30T11:11:03;4.93;;;1.38;;
73980;SDS011;62348;51.412;5.436;2023-07-30T11:13:29;8.20;;;1.60;;
73980;SDS011;62348;51.412;5.436;2023-07-30T11:16:00;4.93;;;1.42;;
73980;SDS011;62348;51.412;5.436;2023-07-30T11:18:26;5.90;;;1.60;;
73980;SDS011;62348;51.412;5.436;2023-07-30T11:23:34;4.97;;;1.42;;
73980;SDS011;62348;51.412;5.436;2023-07-30T11:26:01;6.32;;;1.75;;
73980;SDS011;62348;51.412;5.436;2023-07-30T11:28:29;8.07;;;1.75;;
73980;SDS011;62348;51.412;5.436;2023-07-30T11:30:59;5.07;;;1.65;;
73980;SDS011;62348;51.412;5.436;2023-07-30T11:33:26;4.63;;;1.52;;
73980;SDS011;62348;51.412;5.436;2023-07-30T11:35:53;4.05;;;1.20;;
73980;SDS011;62348;51.412;5.436;2023-07-30T11:38:20;7.97;;;1.70;;
73980;SDS011;62348;51.412;5.436;2023-07-30T11:40:46;6.82;;;1.73;;
73980;SDS011;62348;51.412;5.436;2023-07-30T11:43:12;8.13;;;2.38;;
73980;SDS011;62348;51.412;5.436;2023-07-30T11:45:38;7.32;;;2.00;;
73980;SDS011;62348;51.412;5.436;2023-07-30T11:48:08;7.65;;;2.03;;
73980;SDS011;62348;51.412;5.436;2023-07-30T11:50:44;10.27;;;1.98;;
73980;SDS011;62348;51.412;5.436;2023-07-30T11:53:12;8.82;;;1.98;;
73980;SDS011;62348;51.412;5.436;2023-07-30T11:55:38;6.93;;;1.60;;
73980;SDS011;62348;51.412;5.436;2023-07-30T11:58:07;7.75;;;1.70;;
73980;SDS011;62348;51.412;5.436;2023-07-30T12:00:37;7.82;;;2.13;;
73980;SDS011;62348;51.412;5.436;2023-07-30T12:03:04;4.03;;;1.60;;
73980;SDS011;62348;51.412;5.436;2023-07-30T12:05:36;9.25;;;2.60;;
73980;SDS011;62348;51.412;5.436;2023-07-30T12:08:03;5.18;;;1.55;;
73980;SDS011;62348;51.412;5.436;2023-07-30T12:10:45;4.97;;;1.50;;
73980;SDS011;62348;51.412;5.436;2023-07-30T12:13:17;4.65;;;1.80;;
73980;SDS011;62348;51.412;5.436;2023-07-30T12:15:50;6.38;;;1.95;;
73980;SDS011;62348;51.412;5.436;2023-07-30T12:18:20;4.32;;;1.33;;
73980;SDS011;62348;51.412;5.436;2023-07-30T12:20:46;5.75;;;1.35;;
73980;SDS011;62348;51.412;5.436;2023-07-30T12:23:13;6.68;;;1.83;;
73980;SDS011;62348;51.412;5.436;2023-07-30T12:25:38;4.45;;;1.40;;
73980;SDS011;62348;51.412;5.436;2023-07-30T12:28:04;5.00;;;1.55;;
73980;SDS011;62348;51.412;5.436;2023-07-30T12:30:29;7.90;;;2.10;;
73980;SDS011;62348;51.412;5.436;2023-07-30T12:32:55;6.97;;;1.52;;
73980;SDS011;62348;51.412;5.436;2023-07-30T12:35:21;6.72;;;1.70;;
73980;SDS011;62348;51.412;5.436;2023-07-30T12:37:46;7.25;;;2.35;;
73980;SDS011;62348;51.412;5.436;2023-07-30T12:40:12;4.32;;;1.60;;
73980;SDS011;62348;51.412;5.436;2023-07-30T12:42:37;4.00;;;1.88;;
73980;SDS011;62348;51.412;5.436;2023-07-30T12:45:03;6.50;;;1.60;;
73980;SDS011;62348;51.412;5.436;2023-07-30T12:47:28;5.40;;;1.77;;
73980;SDS011;62348;51.412;5.436;2023-07-30T12:49:54;4.95;;;1.70;;
73980;SDS011;62348;51.412;5.436;2023-07-30T12:52:19;2.63;;;1.50;;
73980;SDS011;62348;51.412;5.436;2023-07-30T12:54:44;7.18;;;1.48;;
73980;SDS011;62348;51.412;5.436;2023-07-30T12:57:10;2.30;;;1.38;;
73980;SDS011;62348;51.412;5.436;2023-07-30T12:59:35;5.35;;;1.33;;
73980;SDS011;62348;51.412;5.436;2023-07-30T13:02:01;2.35;;;1.42;;
73980;SDS011;62348;51.412;5.436;2023-07-30T13:04:27;5.28;;;1.80;;
73980;SDS011;62348;51.412;5.436;2023-07-30T13:06:53;2.88;;;1.52;;
73980;SDS011;62348;51.412;5.436;2023-07-30T13:09:18;3.30;;;1.05;;
73980;SDS011;62348;51.412;5.436;2023-07-30T13:11:44;3.55;;;1.20;;
73980;SDS011;62348;51.412;5.436;2023-07-30T13:14:09;2.67;;;1.05;;
73980;SDS011;62348;51.412;5.436;2023-07-30T13:16:35;4.30;;;1.45;;
73980;SDS011;62348;51.412;5.436;2023-07-30T13:19:00;3.55;;;1.00;;
73980;SDS011;62348;51.412;5.436;2023-07-30T13:21:25;5.15;;;1.20;;
73980;SDS011;62348;51.412;5.436;2023-07-30T13:23:51;5.30;;;1.10;;
73980;SDS011;62348;51.412;5.436;2023-07-30T13:26:17;4.90;;;1.13;;
73980;SDS011;62348;51.412;5.436;2023-07-30T13:28:43;1.42;;;0.82;;
73980;SDS011;62348;51.412;5.436;2023-07-30T13:31:08;6.03;;;1.27;;
73980;SDS011;62348;51.412;5.436;2023-07-30T13:33:34;3.28;;;1.27;;
73980;SDS011;62348;51.412;5.436;2023-07-30T13:35:59;4.38;;;1.30;;
73980;SDS011;62348;51.412;5.436;2023-07-30T13:38:24;3.00;;;1.00;;
73980;SDS011;62348;51.412;5.436;2023-07-30T13:40:52;4.93;;;1.15;;
73980;SDS011;62348;51.412;5.436;2023-07-30T13:43:18;3.40;;;0.98;;
73980;SDS011;62348;51.412;5.436;2023-07-30T13:45:44;6.43;;;1.10;;
73980;SDS011;62348;51.412;5.436;2023-07-30T13:48:09;4.40;;;1.30;;
73980;SDS011;62348;51.412;5.436;2023-07-30T13:50:35;4.50;;;0.90;;
73980;SDS011;62348;51.412;5.436;2023-07-30T13:53:00;2.90;;;1.00;;
73980;SDS011;62348;51.412;5.436;2023-07-30T13:55:26;7.13;;;1.23;;
73980;SDS011;62348;51.412;5.436;2023-07-30T13:57:51;6.13;;;1.30;;
73980;SDS011;62348;51.412;5.436;2023-07-30T14:00:16;4.80;;;1.10;;
73980;SDS011;62348;51.412;5.436;2023-07-30T14:02:42;6.47;;;1.80;;
73980;SDS011;62348;51.412;5.436;2023-07-30T14:05:09;4.57;;;1.17;;
73980;SDS011;62348;51.412;5.436;2023-07-30T14:07:35;3.60;;;1.02;;
73980;SDS011;62348;51.412;5.436;2023-07-30T14:10:00;10.48;;;1.65;;
73980;SDS011;62348;51.412;5.436;2023-07-30T14:12:26;5.82;;;1.38;;
73980;SDS011;62348;51.412;5.436;2023-07-30T14:14:51;3.85;;;1.17;;
73980;SDS011;62348;51.412;5.436;2023-07-30T14:17:17;5.22;;;1.20;;
73980;SDS011;62348;51.412;5.436;2023-07-30T14:19:42;4.15;;;1.10;;
73980;SDS011;62348;51.412;5.436;2023-07-30T14:22:07;4.93;;;1.35;;
73980;SDS011;62348;51.412;5.436;2023-07-30T14:24:33;3.65;;;1.23;;
73980;SDS011;62348;51.412;5.436;2023-07-30T14:26:59;2.88;;;1.40;;
73980;SDS011;62348;51.412;5.436;2023-07-30T14:29:24;5.63;;;1.58;;
73980;SDS011;62348;51.412;5.436;2023-07-30T14:31:50;4.15;;;1.15;;
73980;SDS011;62348;51.412;5.436;2023-07-30T14:34:16;5.13;;;1.20;;
73980;SDS011;62348;51.412;5.436;2023-07-30T14:36:41;4.38;;;1.17;;
73980;SDS011;62348;51.412;5.436;2023-07-30T14:39:07;5.15;;;1.10;;
73980;SDS011;62348;51.412;5.436;2023-07-30T14:41:32;3.17;;;1.13;;